sensor_id;sensor_type;location;lat;lon;timestamp;temperature;humidity
41437;DHT22;27178;49.460;10.850;2024-02-26T00:00:32;8.40;70.50
41437;DHT22;27178;49.460;10.850;2024-02-26T00:03:02;8.40;70.50
41437;DHT22;27178;49.460;10.850;2024-02-26T00:05:30;8.40;70.50
41437;DHT22;27178;49.460;10.850;2024-02-26T00:08:00;8.40;70.70
41437;DHT22;27178;49.460;10.850;2024-02-26T00:10:31;8.30;70.70
41437;DHT22;27178;49.460;10.850;2024-02-26T00:13:00;8.30;70.70
41437;DHT22;27178;49.460;10.850;2024-02-26T00:15:28;8.30;70.70
41437;DHT22;27178;49.460;10.850;2024-02-26T00:17:56;8.20;70.50
41437;DHT22;27178;49.460;10.850;2024-02-26T00:20:24;8.20;70.80
41437;DHT22;27178;49.460;10.850;2024-02-26T00:22:53;8.20;70.90
41437;DHT22;27178;49.460;10.850;2024-02-26T00:25:22;8.20;71.10
41437;DHT22;27178;49.460;10.850;2024-02-26T00:27:51;8.20;71.10
41437;DHT22;27178;49.460;10.850;2024-02-26T00:30:19;8.10;71.10
41437;DHT22;27178;49.460;10.850;2024-02-26T00:32:47;8.10;71.20
41437;DHT22;27178;49.460;10.850;2024-02-26T00:35:15;8.10;71.30
41437;DHT22;27178;49.460;10.850;2024-02-26T00:37:47;8.00;71.40
41437;DHT22;27178;49.460;10.850;2024-02-26T00:40:15;8.00;71.40
41437;DHT22;27178;49.460;10.850;2024-02-26T00:42:45;8.00;71.60
41437;DHT22;27178;49.460;10.850;2024-02-26T00:45:14;8.00;71.70
41437;DHT22;27178;49.460;10.850;2024-02-26T00:47:43;8.00;71.70
41437;DHT22;27178;49.460;10.850;2024-02-26T00:50:14;7.90;71.60
41437;DHT22;27178;49.460;10.850;2024-02-26T00:52:43;7.90;71.70
41437;DHT22;27178;49.460;10.850;2024-02-26T00:55:12;7.90;71.90
41437;DHT22;27178;49.460;10.850;2024-02-26T00:57:40;7.90;72.00
41437;DHT22;27178;49.460;10.850;2024-02-26T01:00:11;7.80;71.90
41437;DHT22;27178;49.460;10.850;2024-02-26T01:02:40;7.80;72.20
41437;DHT22;27178;49.460;10.850;2024-02-26T01:05:09;7.80;72.20
41437;DHT22;27178;49.460;10.850;2024-02-26T01:07:37;7.80;72.30
41437;DHT22;27178;49.460;10.850;2024-02-26T01:10:07;7.70;72.30
41437;DHT22;27178;49.460;10.850;2024-02-26T01:12:36;7.70;72.50
41437;DHT22;27178;49.460;10.850;2024-02-26T01:15:05;7.70;72.90
41437;DHT22;27178;49.460;10.850;2024-02-26T01:17:35;7.70;72.90
41437;DHT22;27178;49.460;10.850;2024-02-26T01:20:04;7.70;73.10
41437;DHT22;27178;49.460;10.850;2024-02-26T01:22:33;7.70;73.10
41437;DHT22;27178;49.460;10.850;2024-02-26T01:25:01;7.80;73.20
41437;DHT22;27178;49.460;10.850;2024-02-26T01:27:29;7.80;73.40
41437;DHT22;27178;49.460;10.850;2024-02-26T01:30:00;7.80;73.60
41437;DHT22;27178;49.460;10.850;2024-02-26T01:32:31;7.80;73.60
41437;DHT22;27178;49.460;10.850;2024-02-26T01:35:01;7.80;73.50
41437;DHT22;27178;49.460;10.850;2024-02-26T01:37:30;7.80;73.50
41437;DHT22;27178;49.460;10.850;2024-02-26T01:39:58;7.80;73.50
41437;DHT22;27178;49.460;10.850;2024-02-26T01:42:26;7.70;73.60
41437;DHT22;27178;49.460;10.850;2024-02-26T01:44:56;7.80;73.80
41437;DHT22;27178;49.460;10.850;2024-02-26T01:47:25;7.80;73.90
41437;DHT22;27178;49.460;10.850;2024-02-26T01:49:54;7.80;74.20
41437;DHT22;27178;49.460;10.850;2024-02-26T01:52:24;7.80;74.20
41437;DHT22;27178;49.460;10.850;2024-02-26T01:54:53;7.80;74.40
41437;DHT22;27178;49.460;10.850;2024-02-26T01:57:21;7.80;74.60
41437;DHT22;27178;49.460;10.850;2024-02-26T01:59:50;7.80;74.60
41437;DHT22;27178;49.460;10.850;2024-02-26T02:02:18;7.90;74.80
41437;DHT22;27178;49.460;10.850;2024-02-26T02:04:47;7.90;74.80
41437;DHT22;27178;49.460;10.850;2024-02-26T02:07:15;7.90;74.70
41437;DHT22;27178;49.460;10.850;2024-02-26T02:09:46;7.90;74.60
41437;DHT22;27178;49.460;10.850;2024-02-26T02:12:14;7.90;74.80
41437;DHT22;27178;49.460;10.850;2024-02-26T02:14:42;7.90;74.60
41437;DHT22;27178;49.460;10.850;2024-02-26T02:17:11;7.90;74.50
41437;DHT22;27178;49.460;10.850;2024-02-26T02:19:39;8.00;74.60
41437;DHT22;27178;49.460;10.850;2024-02-26T02:22:09;8.00;74.60
41437;DHT22;27178;49.460;10.850;2024-02-26T02:24:37;8.00;74.60
41437;DHT22;27178;49.460;10.850;2024-02-26T02:27:05;8.00;74.80
41437;DHT22;27178;49.460;10.850;2024-02-26T02:29:34;8.00;74.80
41437;DHT22;27178;49.460;10.850;2024-02-26T02:32:03;8.00;75.10
41437;DHT22;27178;49.460;10.850;2024-02-26T02:34:33;8.00;75.30
41437;DHT22;27178;49.460;10.850;2024-02-26T02:37:02;8.10;75.50
41437;DHT22;27178;49.460;10.850;2024-02-26T02:39:31;8.00;75.50
41437;DHT22;27178;49.460;10.850;2024-02-26T02:42:00;8.10;75.60
41437;DHT22;27178;49.460;10.850;2024-02-26T02:44:28;8.10;75.60
41437;DHT22;27178;49.460;10.850;2024-02-26T02:46:57;8.10;75.60
41437;DHT22;27178;49.460;10.850;2024-02-26T02:49:25;8.10;75.70
41437;DHT22;27178;49.460;10.850;2024-02-26T02:51:53;8.10;75.70
41437;DHT22;27178;49.460;10.850;2024-02-26T02:54:24;8.10;75.70
41437;DHT22;27178;49.460;10.850;2024-02-26T02:56:54;8.20;75.70
41437;DHT22;27178;49.460;10.850;2024-02-26T02:59:22;8.20;75.70
41437;DHT22;27178;49.460;10.850;2024-02-26T03:01:50;8.20;75.60
41437;DHT22;27178;49.460;10.850;2024-02-26T03:04:18;9.50;76.50
41437;DHT22;27178;49.460;10.850;2024-02-26T03:06:47;8.30;76.60
41437;DHT22;27178;49.460;10.850;2024-02-26T03:09:15;8.30;75.80
41437;DHT22;27178;49.460;10.850;2024-02-26T03:11:44;8.30;75.80
41437;DHT22;27178;49.460;10.850;2024-02-26T03:14:13;8.30;75.80
41437;DHT22;27178;49.460;10.850;2024-02-26T03:16:42;8.30;75.90
41437;DHT22;27178;49.460;10.850;2024-02-26T03:19:10;8.30;75.80
41437;DHT22;27178;49.460;10.850;2024-02-26T03:21:39;8.40;75.90
41437;DHT22;27178;49.460;10.850;2024-02-26T03:24:07;8.40;75.80
41437;DHT22;27178;49.460;10.850;2024-02-26T03:26:37;8.40;75.90
41437;DHT22;27178;49.460;10.850;2024-02-26T03:29:05;8.40;75.90
41437;DHT22;27178;49.460;10.850;2024-02-26T03:31:35;8.40;75.90
41437;DHT22;27178;49.460;10.850;2024-02-26T03:34:04;8.40;75.90
41437;DHT22;27178;49.460;10.850;2024-02-26T03:36:32;8.40;75.80
41437;DHT22;27178;49.460;10.850;2024-02-26T03:39:00;8.50;75.90
41437;DHT22;27178;49.460;10.850;2024-02-26T03:41:31;8.50;75.90
41437;DHT22;27178;49.460;10.850;2024-02-26T03:44:00;8.40;75.70
41437;DHT22;27178;49.460;10.850;2024-02-26T03:46:28;8.50;75.70
41437;DHT22;27178;49.460;10.850;2024-02-26T03:48:57;8.50;75.50
41437;DHT22;27178;49.460;10.850;2024-02-26T03:51:26;8.50;75.50
41437;DHT22;27178;49.460;10.850;2024-02-26T03:53:58;8.50;75.50
41437;DHT22;27178;49.460;10.850;2024-02-26T03:56:26;8.50;75.30
41437;DHT22;27178;49.460;10.850;2024-02-26T03:58:54;8.50;75.30
41437;DHT22;27178;49.460;10.850;2024-02-26T04:01:23;8.40;75.20
41437;DHT22;27178;49.460;10.850;2024-02-26T04:03:51;8.40;75.20
41437;DHT22;27178;49.460;10.850;2024-02-26T04:06:21;8.40;75.10
41437;DHT22;27178;49.460;10.850;2024-02-26T04:08:49;8.40;74.80
41437;DHT22;27178;49.460;10.850;2024-02-26T04:11:18;8.30;74.70
41437;DHT22;27178;49.460;10.850;2024-02-26T04:13:47;8.30;74.80
41437;DHT22;27178;49.460;10.850;2024-02-26T04:16:16;8.30;75.00
41437;DHT22;27178;49.460;10.850;2024-02-26T04:18:45;8.20;74.90
41437;DHT22;27178;49.460;10.850;2024-02-26T04:21:13;8.10;74.80
41437;DHT22;27178;49.460;10.850;2024-02-26T04:23:43;8.10;75.10
41437;DHT22;27178;49.460;10.850;2024-02-26T04:26:11;8.10;75.60
41437;DHT22;27178;49.460;10.850;2024-02-26T04:28:40;8.10;75.90
41437;DHT22;27178;49.460;10.850;2024-02-26T04:31:08;8.10;76.00
41437;DHT22;27178;49.460;10.850;2024-02-26T04:33:36;8.10;76.10
41437;DHT22;27178;49.460;10.850;2024-02-26T04:36:05;8.10;76.20
41437;DHT22;27178;49.460;10.850;2024-02-26T04:38:33;8.10;76.30
41437;DHT22;27178;49.460;10.850;2024-02-26T04:41:03;8.10;76.40
41437;DHT22;27178;49.460;10.850;2024-02-26T04:43:32;8.10;76.40
41437;DHT22;27178;49.460;10.850;2024-02-26T04:45:59;8.20;76.40
41437;DHT22;27178;49.460;10.850;2024-02-26T04:48:28;8.20;76.60
41437;DHT22;27178;49.460;10.850;2024-02-26T04:50:56;8.20;76.60
41437;DHT22;27178;49.460;10.850;2024-02-26T04:53:24;8.20;76.70
41437;DHT22;27178;49.460;10.850;2024-02-26T04:55:52;8.20;76.60
41437;DHT22;27178;49.460;10.850;2024-02-26T04:58:22;8.20;76.60
41437;DHT22;27178;49.460;10.850;2024-02-26T05:00:51;8.20;76.70
41437;DHT22;27178;49.460;10.850;2024-02-26T05:03:19;8.20;76.70
41437;DHT22;27178;49.460;10.850;2024-02-26T05:05:47;8.20;76.80
41437;DHT22;27178;49.460;10.850;2024-02-26T05:08:16;8.20;76.80
41437;DHT22;27178;49.460;10.850;2024-02-26T05:10:45;8.20;76.80
41437;DHT22;27178;49.460;10.850;2024-02-26T05:13:14;8.30;76.90
41437;DHT22;27178;49.460;10.850;2024-02-26T05:15:46;8.30;76.80
41437;DHT22;27178;49.460;10.850;2024-02-26T05:18:16;8.30;76.80
41437;DHT22;27178;49.460;10.850;2024-02-26T05:20:44;8.30;76.70
41437;DHT22;27178;49.460;10.850;2024-02-26T05:23:16;8.30;76.70
41437;DHT22;27178;49.460;10.850;2024-02-26T05:25:48;8.30;76.80
41437;DHT22;27178;49.460;10.850;2024-02-26T05:28:16;8.30;76.70
41437;DHT22;27178;49.460;10.850;2024-02-26T05:30:49;8.30;76.60
41437;DHT22;27178;49.460;10.850;2024-02-26T05:33:17;8.30;76.60
41437;DHT22;27178;49.460;10.850;2024-02-26T05:35:47;8.30;76.50
41437;DHT22;27178;49.460;10.850;2024-02-26T05:38:15;8.30;76.60
41437;DHT22;27178;49.460;10.850;2024-02-26T05:40:43;8.30;76.70
41437;DHT22;27178;49.460;10.850;2024-02-26T05:43:12;8.20;76.80
41437;DHT22;27178;49.460;10.850;2024-02-26T05:45:42;8.20;76.80
41437;DHT22;27178;49.460;10.850;2024-02-26T05:48:12;8.20;76.80
41437;DHT22;27178;49.460;10.850;2024-02-26T05:50:40;8.20;77.90
41437;DHT22;27178;49.460;10.850;2024-02-26T05:53:09;8.20;77.00
41437;DHT22;27178;49.460;10.850;2024-02-26T05:55:37;8.20;77.00
41437;DHT22;27178;49.460;10.850;2024-02-26T05:58:06;8.20;77.10
41437;DHT22;27178;49.460;10.850;2024-02-26T06:00:34;8.20;77.20
41437;DHT22;27178;49.460;10.850;2024-02-26T06:03:03;8.20;77.10
41437;DHT22;27178;49.460;10.850;2024-02-26T06:05:33;8.20;77.20
41437;DHT22;27178;49.460;10.850;2024-02-26T06:08:02;8.20;77.20
41437;DHT22;27178;49.460;10.850;2024-02-26T06:10:30;8.30;77.20
41437;DHT22;27178;49.460;10.850;2024-02-26T06:12:58;8.30;77.20
41437;DHT22;27178;49.460;10.850;2024-02-26T06:15:27;8.30;77.40
41437;DHT22;27178;49.460;10.850;2024-02-26T06:17:55;8.30;77.50
41437;DHT22;27178;49.460;10.850;2024-02-26T06:20:23;8.20;77.30
41437;DHT22;27178;49.460;10.850;2024-02-26T06:22:53;8.30;77.50
41437;DHT22;27178;49.460;10.850;2024-02-26T06:25:21;8.30;77.50
41437;DHT22;27178;49.460;10.850;2024-02-26T06:27:49;8.30;77.50
41437;DHT22;27178;49.460;10.850;2024-02-26T06:30:17;8.30;77.60
41437;DHT22;27178;49.460;10.850;2024-02-26T06:32:46;8.30;77.60
41437;DHT22;27178;49.460;10.850;2024-02-26T06:35:14;8.30;77.50
41437;DHT22;27178;49.460;10.850;2024-02-26T06:37:42;8.40;77.70
41437;DHT22;27178;49.460;10.850;2024-02-26T06:40:12;8.40;77.70
41437;DHT22;27178;49.460;10.850;2024-02-26T06:42:40;8.40;77.70
41437;DHT22;27178;49.460;10.850;2024-02-26T06:45:14;8.40;77.80
41437;DHT22;27178;49.460;10.850;2024-02-26T06:47:42;8.40;77.70
41437;DHT22;27178;49.460;10.850;2024-02-26T06:50:11;8.40;77.70
41437;DHT22;27178;49.460;10.850;2024-02-26T06:52:40;8.40;77.70
41437;DHT22;27178;49.460;10.850;2024-02-26T06:55:08;8.40;77.70
41437;DHT22;27178;49.460;10.850;2024-02-26T06:57:38;8.40;77.70
41437;DHT22;27178;49.460;10.850;2024-02-26T07:00:07;8.40;77.70
41437;DHT22;27178;49.460;10.850;2024-02-26T07:02:39;8.50;77.50
41437;DHT22;27178;49.460;10.850;2024-02-26T07:05:08;8.40;78.80
41437;DHT22;27178;49.460;10.850;2024-02-26T07:07:37;8.40;77.80
41437;DHT22;27178;49.460;10.850;2024-02-26T07:10:06;8.40;77.80
41437;DHT22;27178;49.460;10.850;2024-02-26T07:12:34;8.40;77.90
41437;DHT22;27178;49.460;10.850;2024-02-26T07:15:05;8.40;78.00
41437;DHT22;27178;49.460;10.850;2024-02-26T07:17:35;8.40;78.20
41437;DHT22;27178;49.460;10.850;2024-02-26T07:20:04;8.40;78.30
41437;DHT22;27178;49.460;10.850;2024-02-26T07:22:36;8.40;78.40
41437;DHT22;27178;49.460;10.850;2024-02-26T07:25:05;8.50;78.50
41437;DHT22;27178;49.460;10.850;2024-02-26T07:27:35;8.50;78.70
41437;DHT22;27178;49.460;10.850;2024-02-26T07:30:06;8.50;78.60
41437;DHT22;27178;49.460;10.850;2024-02-26T07:32:35;8.50;78.80
41437;DHT22;27178;49.460;10.850;2024-02-26T07:35:04;8.60;78.80
41437;DHT22;27178;49.460;10.850;2024-02-26T07:37:33;8.70;78.90
41437;DHT22;27178;49.460;10.850;2024-02-26T07:40:01;8.70;79.00
41437;DHT22;27178;49.460;10.850;2024-02-26T07:42:30;8.70;78.80
41437;DHT22;27178;49.460;10.850;2024-02-26T07:44:58;8.80;78.70
41437;DHT22;27178;49.460;10.850;2024-02-26T07:47:27;8.80;78.60
41437;DHT22;27178;49.460;10.850;2024-02-26T07:49:56;8.90;78.30
41437;DHT22;27178;49.460;10.850;2024-02-26T07:52:25;8.90;77.90
41437;DHT22;27178;49.460;10.850;2024-02-26T07:54:53;9.00;78.00
41437;DHT22;27178;49.460;10.850;2024-02-26T07:57:21;9.00;77.80
41437;DHT22;27178;49.460;10.850;2024-02-26T07:59:49;9.10;77.60
41437;DHT22;27178;49.460;10.850;2024-02-26T08:02:18;9.10;77.50
41437;DHT22;27178;49.460;10.850;2024-02-26T08:04:47;9.10;77.20
41437;DHT22;27178;49.460;10.850;2024-02-26T08:07:16;9.20;77.10
41437;DHT22;27178;49.460;10.850;2024-02-26T08:09:44;9.20;76.90
41437;DHT22;27178;49.460;10.850;2024-02-26T08:12:13;9.20;76.70
41437;DHT22;27178;49.460;10.850;2024-02-26T08:14:40;9.30;76.50
41437;DHT22;27178;49.460;10.850;2024-02-26T08:17:09;9.30;76.40
41437;DHT22;27178;49.460;10.850;2024-02-26T08:19:38;9.30;76.30
41437;DHT22;27178;49.460;10.850;2024-02-26T08:22:07;9.30;76.20
41437;DHT22;27178;49.460;10.850;2024-02-26T08:24:37;9.40;76.20
41437;DHT22;27178;49.460;10.850;2024-02-26T08:27:05;9.40;76.30
41437;DHT22;27178;49.460;10.850;2024-02-26T08:29:33;9.40;76.20
41437;DHT22;27178;49.460;10.850;2024-02-26T08:32:02;9.50;76.30
41437;DHT22;27178;49.460;10.850;2024-02-26T08:34:30;9.50;76.30
41437;DHT22;27178;49.460;10.850;2024-02-26T08:36:59;9.50;76.40
41437;DHT22;27178;49.460;10.850;2024-02-26T08:39:28;9.60;76.50
41437;DHT22;27178;49.460;10.850;2024-02-26T08:41:56;9.60;76.50
41437;DHT22;27178;49.460;10.850;2024-02-26T08:44:25;9.60;76.40
41437;DHT22;27178;49.460;10.850;2024-02-26T08:46:53;9.70;76.30
41437;DHT22;27178;49.460;10.850;2024-02-26T08:49:21;9.70;76.30
41437;DHT22;27178;49.460;10.850;2024-02-26T08:51:51;9.70;76.20
41437;DHT22;27178;49.460;10.850;2024-02-26T08:54:19;9.80;76.10
41437;DHT22;27178;49.460;10.850;2024-02-26T08:56:49;9.80;76.10
41437;DHT22;27178;49.460;10.850;2024-02-26T08:59:16;9.90;76.10
41437;DHT22;27178;49.460;10.850;2024-02-26T09:01:49;10.00;76.00
41437;DHT22;27178;49.460;10.850;2024-02-26T09:04:17;10.00;75.80
41437;DHT22;27178;49.460;10.850;2024-02-26T09:06:46;10.10;75.80
41437;DHT22;27178;49.460;10.850;2024-02-26T09:09:14;10.10;75.60
41437;DHT22;27178;49.460;10.850;2024-02-26T09:11:43;10.20;75.50
41437;DHT22;27178;49.460;10.850;2024-02-26T09:14:12;10.20;75.10
41437;DHT22;27178;49.460;10.850;2024-02-26T09:16:41;10.20;74.70
41437;DHT22;27178;49.460;10.850;2024-02-26T09:19:09;10.30;74.70
41437;DHT22;27178;49.460;10.850;2024-02-26T09:21:42;10.30;74.70
41437;DHT22;27178;49.460;10.850;2024-02-26T09:24:10;10.40;74.70
41437;DHT22;27178;49.460;10.850;2024-02-26T09:26:39;10.40;74.80
41437;DHT22;27178;49.460;10.850;2024-02-26T09:29:07;10.50;74.80
41437;DHT22;27178;49.460;10.850;2024-02-26T09:31:37;10.50;74.50
41437;DHT22;27178;49.460;10.850;2024-02-26T09:34:08;10.50;74.30
41437;DHT22;27178;49.460;10.850;2024-02-26T09:36:36;10.60;74.20
41437;DHT22;27178;49.460;10.850;2024-02-26T09:39:04;10.60;74.10
41437;DHT22;27178;49.460;10.850;2024-02-26T09:41:34;10.70;74.10
41437;DHT22;27178;49.460;10.850;2024-02-26T09:44:03;10.70;73.70
41437;DHT22;27178;49.460;10.850;2024-02-26T09:46:33;10.70;73.60
41437;DHT22;27178;49.460;10.850;2024-02-26T09:49:03;10.80;73.80
41437;DHT22;27178;49.460;10.850;2024-02-26T09:51:32;10.80;73.70
41437;DHT22;27178;49.460;10.850;2024-02-26T09:54:00;10.80;73.30
41437;DHT22;27178;49.460;10.850;2024-02-26T09:56:33;10.90;73.20
41437;DHT22;27178;49.460;10.850;2024-02-26T09:59:07;10.90;73.20
41437;DHT22;27178;49.460;10.850;2024-02-26T10:01:39;10.90;73.30
41437;DHT22;27178;49.460;10.850;2024-02-26T10:04:11;11.00;73.50
41437;DHT22;27178;49.460;10.850;2024-02-26T10:06:40;11.00;73.40
41437;DHT22;27178;49.460;10.850;2024-02-26T10:09:11;11.00;73.30
41437;DHT22;27178;49.460;10.850;2024-02-26T10:11:43;11.10;73.10
41437;DHT22;27178;49.460;10.850;2024-02-26T10:14:11;11.10;72.90
41437;DHT22;27178;49.460;10.850;2024-02-26T10:16:40;11.20;72.80
41437;DHT22;27178;49.460;10.850;2024-02-26T10:19:24;11.20;72.70
41437;DHT22;27178;49.460;10.850;2024-02-26T10:21:56;11.30;72.60
41437;DHT22;27178;49.460;10.850;2024-02-26T10:24:25;11.30;72.60
41437;DHT22;27178;49.460;10.850;2024-02-26T10:26:55;11.40;72.20
41437;DHT22;27178;49.460;10.850;2024-02-26T10:29:24;11.40;71.80
41437;DHT22;27178;49.460;10.850;2024-02-26T10:31:53;11.50;71.40
41437;DHT22;27178;49.460;10.850;2024-02-26T10:34:24;11.60;71.40
41437;DHT22;27178;49.460;10.850;2024-02-26T10:36:53;11.60;71.50
41437;DHT22;27178;49.460;10.850;2024-02-26T10:39:22;11.70;71.60
41437;DHT22;27178;49.460;10.850;2024-02-26T10:41:51;11.70;71.60
41437;DHT22;27178;49.460;10.850;2024-02-26T10:44:20;11.70;71.60
41437;DHT22;27178;49.460;10.850;2024-02-26T10:46:48;11.80;71.20
41437;DHT22;27178;49.460;10.850;2024-02-26T10:49:17;11.80;70.80
41437;DHT22;27178;49.460;10.850;2024-02-26T10:51:54;11.80;70.90
41437;DHT22;27178;49.460;10.850;2024-02-26T10:54:26;11.80;70.90
41437;DHT22;27178;49.460;10.850;2024-02-26T10:56:56;11.90;70.70
41437;DHT22;27178;49.460;10.850;2024-02-26T10:59:25;11.90;70.50
41437;DHT22;27178;49.460;10.850;2024-02-26T11:01:55;11.90;70.70
41437;DHT22;27178;49.460;10.850;2024-02-26T11:04:24;12.00;70.50
41437;DHT22;27178;49.460;10.850;2024-02-26T11:06:57;12.00;70.20
41437;DHT22;27178;49.460;10.850;2024-02-26T11:09:26;12.10;70.10
41437;DHT22;27178;49.460;10.850;2024-02-26T11:11:57;12.10;70.30
41437;DHT22;27178;49.460;10.850;2024-02-26T11:14:26;12.20;70.30
41437;DHT22;27178;49.460;10.850;2024-02-26T11:16:58;12.20;70.20
41437;DHT22;27178;49.460;10.850;2024-02-26T11:19:28;12.30;70.10
41437;DHT22;27178;49.460;10.850;2024-02-26T11:22:02;12.30;69.80
41437;DHT22;27178;49.460;10.850;2024-02-26T11:24:47;12.40;70.10
41437;DHT22;27178;49.460;10.850;2024-02-26T11:27:17;12.50;69.90
41437;DHT22;27178;49.460;10.850;2024-02-26T11:29:49;12.60;69.90
41437;DHT22;27178;49.460;10.850;2024-02-26T11:32:19;12.70;70.00
41437;DHT22;27178;49.460;10.850;2024-02-26T11:34:47;12.80;69.90
41437;DHT22;27178;49.460;10.850;2024-02-26T11:37:18;12.80;69.50
41437;DHT22;27178;49.460;10.850;2024-02-26T11:39:47;12.90;69.80
41437;DHT22;27178;49.460;10.850;2024-02-26T11:42:16;13.00;68.80
41437;DHT22;27178;49.460;10.850;2024-02-26T11:44:45;13.10;69.00
41437;DHT22;27178;49.460;10.850;2024-02-26T11:47:20;13.20;69.00
41437;DHT22;27178;49.460;10.850;2024-02-26T11:49:49;13.20;69.30
41437;DHT22;27178;49.460;10.850;2024-02-26T11:52:19;13.30;68.70
41437;DHT22;27178;49.460;10.850;2024-02-26T11:54:49;13.40;68.00
41437;DHT22;27178;49.460;10.850;2024-02-26T11:57:37;13.50;68.20
41437;DHT22;27178;49.460;10.850;2024-02-26T12:00:13;13.50;68.40
41437;DHT22;27178;49.460;10.850;2024-02-26T12:02:45;13.60;67.20
41437;DHT22;27178;49.460;10.850;2024-02-26T12:05:16;13.60;67.30
41437;DHT22;27178;49.460;10.850;2024-02-26T12:07:47;13.60;66.80
41437;DHT22;27178;49.460;10.850;2024-02-26T12:10:25;13.70;66.90
41437;DHT22;27178;49.460;10.850;2024-02-26T12:12:59;13.70;67.20
41437;DHT22;27178;49.460;10.850;2024-02-26T12:15:32;13.70;67.40
41437;DHT22;27178;49.460;10.850;2024-02-26T12:18:05;13.70;66.70
41437;DHT22;27178;49.460;10.850;2024-02-26T12:20:35;13.80;66.70
41437;DHT22;27178;49.460;10.850;2024-02-26T12:23:05;13.80;66.80
41437;DHT22;27178;49.460;10.850;2024-02-26T12:25:33;13.80;66.80
41437;DHT22;27178;49.460;10.850;2024-02-26T12:28:02;13.80;67.10
41437;DHT22;27178;49.460;10.850;2024-02-26T12:30:31;13.80;67.30
41437;DHT22;27178;49.460;10.850;2024-02-26T12:32:59;13.90;67.50
41437;DHT22;27178;49.460;10.850;2024-02-26T12:35:29;13.90;67.90
41437;DHT22;27178;49.460;10.850;2024-02-26T12:37:59;14.00;67.70
41437;DHT22;27178;49.460;10.850;2024-02-26T12:40:29;14.00;67.20
41437;DHT22;27178;49.460;10.850;2024-02-26T12:42:58;14.10;67.20
41437;DHT22;27178;49.460;10.850;2024-02-26T12:45:26;14.20;66.70
41437;DHT22;27178;49.460;10.850;2024-02-26T12:47:55;14.30;66.20
41437;DHT22;27178;49.460;10.850;2024-02-26T12:50:24;14.40;66.70
41437;DHT22;27178;49.460;10.850;2024-02-26T12:52:53;14.50;66.70
41437;DHT22;27178;49.460;10.850;2024-02-26T12:55:21;14.50;66.50
41437;DHT22;27178;49.460;10.850;2024-02-26T12:57:51;14.60;66.30
41437;DHT22;27178;49.460;10.850;2024-02-26T13:00:24;14.80;66.10
41437;DHT22;27178;49.460;10.850;2024-02-26T13:02:54;14.90;66.10
41437;DHT22;27178;49.460;10.850;2024-02-26T13:05:23;15.00;66.20
41437;DHT22;27178;49.460;10.850;2024-02-26T13:07:52;15.20;66.40
41437;DHT22;27178;49.460;10.850;2024-02-26T13:10:20;15.40;65.50
41437;DHT22;27178;49.460;10.850;2024-02-26T13:12:51;15.50;65.10
41437;DHT22;27178;49.460;10.850;2024-02-26T13:15:21;15.60;64.90
41437;DHT22;27178;49.460;10.850;2024-02-26T13:17:50;15.80;64.80
41437;DHT22;27178;49.460;10.850;2024-02-26T13:20:27;15.90;63.60
41437;DHT22;27178;49.460;10.850;2024-02-26T13:23:03;16.00;62.50
41437;DHT22;27178;49.460;10.850;2024-02-26T13:25:32;16.10;62.60
41437;DHT22;27178;49.460;10.850;2024-02-26T13:28:09;16.20;62.40
41437;DHT22;27178;49.460;10.850;2024-02-26T13:30:40;16.30;61.60
41437;DHT22;27178;49.460;10.850;2024-02-26T13:33:10;16.40;62.70
41437;DHT22;27178;49.460;10.850;2024-02-26T13:35:39;16.50;62.60
41437;DHT22;27178;49.460;10.850;2024-02-26T13:38:10;16.50;62.80
41437;DHT22;27178;49.460;10.850;2024-02-26T13:40:39;16.60;61.90
41437;DHT22;27178;49.460;10.850;2024-02-26T13:43:09;16.70;61.60
41437;DHT22;27178;49.460;10.850;2024-02-26T13:45:38;16.70;61.80
41437;DHT22;27178;49.460;10.850;2024-02-26T13:48:07;16.70;60.70
41437;DHT22;27178;49.460;10.850;2024-02-26T13:50:37;16.80;60.50
41437;DHT22;27178;49.460;10.850;2024-02-26T13:53:06;16.70;60.90
41437;DHT22;27178;49.460;10.850;2024-02-26T13:55:35;16.70;61.20
41437;DHT22;27178;49.460;10.850;2024-02-26T13:58:04;16.60;61.20
41437;DHT22;27178;49.460;10.850;2024-02-26T14:00:34;16.60;61.20
41437;DHT22;27178;49.460;10.850;2024-02-26T14:03:03;16.50;61.30
41437;DHT22;27178;49.460;10.850;2024-02-26T14:05:31;16.40;61.10
41437;DHT22;27178;49.460;10.850;2024-02-26T14:08:00;16.40;61.30
41437;DHT22;27178;49.460;10.850;2024-02-26T14:10:28;16.30;61.40
41437;DHT22;27178;49.460;10.850;2024-02-26T14:12:57;16.20;60.90
41437;DHT22;27178;49.460;10.850;2024-02-26T14:15:27;16.10;60.90
41437;DHT22;27178;49.460;10.850;2024-02-26T14:17:57;16.10;61.50
41437;DHT22;27178;49.460;10.850;2024-02-26T14:20:26;16.00;61.80
41437;DHT22;27178;49.460;10.850;2024-02-26T14:22:54;15.90;62.00
41437;DHT22;27178;49.460;10.850;2024-02-26T14:25:22;15.80;61.70
41437;DHT22;27178;49.460;10.850;2024-02-26T14:27:55;15.80;62.00
41437;DHT22;27178;49.460;10.850;2024-02-26T14:30:25;15.70;61.90
41437;DHT22;27178;49.460;10.850;2024-02-26T14:32:54;15.60;61.60
41437;DHT22;27178;49.460;10.850;2024-02-26T14:35:24;15.50;60.90
41437;DHT22;27178;49.460;10.850;2024-02-26T14:37:53;15.50;60.90
41437;DHT22;27178;49.460;10.850;2024-02-26T14:40:22;15.40;61.20
41437;DHT22;27178;49.460;10.850;2024-02-26T14:42:50;15.30;60.70
41437;DHT22;27178;49.460;10.850;2024-02-26T14:45:19;15.30;60.70
41437;DHT22;27178;49.460;10.850;2024-02-26T14:47:47;15.20;61.20
41437;DHT22;27178;49.460;10.850;2024-02-26T14:50:16;15.20;61.60
41437;DHT22;27178;49.460;10.850;2024-02-26T14:52:46;15.10;62.20
41437;DHT22;27178;49.460;10.850;2024-02-26T14:55:14;15.10;62.20
41437;DHT22;27178;49.460;10.850;2024-02-26T14:57:43;15.00;62.50
41437;DHT22;27178;49.460;10.850;2024-02-26T15:00:12;14.90;62.70
41437;DHT22;27178;49.460;10.850;2024-02-26T15:02:40;14.90;63.10
41437;DHT22;27178;49.460;10.850;2024-02-26T15:05:09;14.90;63.30
41437;DHT22;27178;49.460;10.850;2024-02-26T15:07:38;14.80;63.60
41437;DHT22;27178;49.460;10.850;2024-02-26T15:10:09;14.80;63.70
41437;DHT22;27178;49.460;10.850;2024-02-26T15:12:37;14.80;63.90
41437;DHT22;27178;49.460;10.850;2024-02-26T15:15:07;14.80;63.70
41437;DHT22;27178;49.460;10.850;2024-02-26T15:17:35;14.80;63.00
41437;DHT22;27178;49.460;10.850;2024-02-26T15:20:05;14.70;63.20
41437;DHT22;27178;49.460;10.850;2024-02-26T15:22:34;14.70;63.80
41437;DHT22;27178;49.460;10.850;2024-02-26T15:25:03;14.60;63.60
41437;DHT22;27178;49.460;10.850;2024-02-26T15:27:33;14.60;63.60
41437;DHT22;27178;49.460;10.850;2024-02-26T15:30:02;14.60;63.90
41437;DHT22;27178;49.460;10.850;2024-02-26T15:32:31;14.60;64.10
41437;DHT22;27178;49.460;10.850;2024-02-26T15:34:59;14.60;63.50
41437;DHT22;27178;49.460;10.850;2024-02-26T15:37:28;14.50;63.60